Time;durP1;ratioP1;P1;durP2;ratioP2;P2;SDS_P1;SDS_P2;PMS_P1;PMS_P2;Temp;Humidity;BMP_temperature;BMP_pressure;BME280_temperature;BME280_humidity;BME280_pressure;Samples;Min_cycle;Max_cycle;Signal;HPM_P1;HPM_P2
2023/01/17 00:02:27;;;;;;;1.63;1.52;;;;;;;3.26;100.00;96907.44;6149909;28;20043;-90
2023/01/17 00:12:10;;;;;;;1.95;1.73;;;;;;;3.27;100.00;96911.56;6158072;28;20078;-90
2023/01/17 00:15:13;;;;;;;2.55;2.08;;;;;;;3.26;100.00;96919.41;6160509;28;20061;-90
2023/01/17 00:18:17;;;;;;;2.45;2.17;;;;;;;3.22;100.00;96911.25;6156739;28;20513;-90
2023/01/17 01:36:25;;;;;;;6.03;4.47;;;;;;;2.98;100.00;96950.41;6138638;28;20039;-87
2023/01/17 01:39:27;;;;;;;5.40;3.78;;;;;;;2.93;100.00;96966.25;6154000;28;20074;-86
2023/01/17 01:42:28;;;;;;;4.65;3.58;;;;;;;2.93;100.00;96945.81;6159544;28;20087;-87
2023/01/17 01:45:32;;;;;;;4.50;3.40;;;;;;;2.92;100.00;96958.75;6163448;28;20416;-89
2023/01/17 01:48:40;;;;;;;4.82;3.55;;;;;;;2.84;100.00;96959.56;6164447;28;20461;-88
2023/01/17 01:51:48;;;;;;;4.53;3.60;;;;;;;2.83;100.00;96965.59;6156338;28;20046;-88
2023/01/17 01:54:56;;;;;;;4.13;3.15;;;;;;;2.87;100.00;96972.00;6162793;28;20054;-86
2023/01/17 01:58:03;;;;;;;4.00;3.25;;;;;;;2.78;100.00;96973.75;6162948;28;20419;-88
2023/01/17 02:01:07;;;;;;;3.92;2.65;;;;;;;2.80;100.00;96976.13;6151384;28;20039;-88
2023/01/17 02:04:09;;;;;;;5.13;3.08;;;;;;;2.86;100.00;96979.81;6160098;28;20043;-88
2023/01/17 02:07:22;;;;;;;3.53;2.60;;;;;;;2.85;100.00;96976.47;6162195;28;20050;-88
2023/01/17 02:10:24;;;;;;;3.17;2.30;;;;;;;2.85;100.00;96989.22;6162955;28;20524;-87
2023/01/17 02:13:27;;;;;;;3.38;2.50;;;;;;;2.82;100.00;96991.31;6163463;28;20100;-87
2023/01/17 02:16:46;;;;;;;2.97;2.20;;;;;;;2.76;100.00;96988.44;6151301;28;20519;-87
2023/01/17 02:19:48;;;;;;;3.03;2.35;;;;;;;2.82;100.00;96998.97;6163519;28;20537;-87
2023/01/17 02:22:56;;;;;;;2.40;2.00;;;;;;;2.81;100.00;97005.84;6162103;28;20611;-87
2023/01/17 02:26:12;;;;;;;2.15;1.90;;;;;;;2.78;100.00;97014.63;6163413;28;20637;-87
2023/01/17 02:29:52;;;;;;;3.58;2.55;;;;;;;2.81;100.00;97003.28;6156407;28;20051;-86
2023/01/17 02:33:21;;;;;;;2.30;1.85;;;;;;;2.78;100.00;97012.06;6162565;28;20054;-87
2023/01/17 02:36:35;;;;;;;3.22;2.33;;;;;;;2.78;100.00;97013.81;6158398;28;20181;-85
2023/01/17 02:39:50;;;;;;;3.00;2.50;;;;;;;2.77;100.00;97012.22;6159053;28;20552;-86
2023/01/17 02:43:01;;;;;;;3.45;2.60;;;;;;;2.74;100.00;97020.19;6151264;28;20058;-87
2023/01/17 02:46:03;;;;;;;3.90;2.95;;;;;;;2.70;100.00;97022.25;6157147;28;20047;-87
2023/01/17 02:49:04;;;;;;;4.63;2.88;;;;;;;2.81;100.00;97031.38;6142326;28;20043;-87
2023/01/17 02:52:49;;;;;;;4.13;2.90;;;;;;;2.84;100.00;97043.03;6148124;28;20039;-87
2023/01/17 02:56:01;;;;;;;3.28;2.80;;;;;;;2.91;100.00;97037.13;6146369;28;20046;-87
2023/01/17 02:59:14;;;;;;;2.50;2.00;;;;;;;2.91;100.00;97041.44;6158275;28;20043;-87
2023/01/17 03:02:39;;;;;;;2.72;2.08;;;;;;;2.89;100.00;97051.81;6142299;28;20073;-88
2023/01/17 03:05:51;;;;;;;3.05;2.55;;;;;;;2.91;100.00;97042.25;6153551;28;20049;-88
2023/01/17 03:08:53;;;;;;;2.85;2.50;;;;;;;2.95;100.00;97042.72;6160710;28;20035;-88
2023/01/17 03:11:56;;;;;;;3.17;2.15;;;;;;;2.91;100.00;97057.56;6149635;28;20046;-88
2023/01/17 03:14:58;;;;;;;2.80;1.85;;;;;;;2.96;100.00;97073.22;6142925;28;20049;-88
2023/01/17 03:18:04;;;;;;;3.08;2.03;;;;;;;3.00;100.00;97071.13;6161805;28;20043;-88
2023/01/17 03:21:07;;;;;;;2.33;2.10;;;;;;;2.98;100.00;97075.59;6161147;28;20576;-89
2023/01/17 03:24:09;;;;;;;3.15;2.25;;;;;;;2.94;100.00;97082.00;6155687;28;20106;-88
2023/01/17 03:27:11;;;;;;;2.28;2.08;;;;;;;2.97;100.00;97092.69;6136729;28;20059;-89
2023/01/17 03:30:13;;;;;;;2.67;2.15;;;;;;;2.97;100.00;97090.13;6143756;28;20502;-89
2023/01/17 03:33:18;;;;;;;4.35;2.65;;;;;;;2.96;100.00;97108.19;6148331;28;20541;-89
2023/01/17 03:36:20;;;;;;;6.80;4.07;;;;;;;3.01;100.00;97113.63;6147788;28;20137;-89
2023/01/17 03:39:22;;;;;;;3.88;2.80;;;;;;;3.01;100.00;97108.50;6142776;28;20046;-89
2023/01/17 03:42:23;;;;;;;3.55;2.67;;;;;;;3.08;100.00;97112.03;6153969;28;20595;-89
2023/01/17 03:45:26;;;;;;;3.15;2.85;;;;;;;3.09;100.00;97098.28;6149620;28;20104;-89
2023/01/17 03:48:31;;;;;;;3.05;2.55;;;;;;;3.00;100.00;97089.81;6149476;28;20726;-88
2023/01/17 03:51:33;;;;;;;2.60;2.17;;;;;;;3.01;100.00;97100.84;6148304;28;20043;-90
2023/01/17 03:54:35;;;;;;;2.85;2.30;;;;;;;2.91;100.00;97103.53;6150598;28;20035;-89
2023/01/17 03:57:37;;;;;;;2.58;2.03;;;;;;;2.86;100.00;97099.84;6147613;28;20493;-89
2023/01/17 04:00:39;;;;;;;2.65;2.35;;;;;;;2.71;100.00;97107.34;6160321;28;20043;-89
2023/01/17 04:03:41;;;;;;;3.17;2.47;;;;;;;2.62;100.00;97106.50;6159132;28;20173;-88
2023/01/17 04:06:43;;;;;;;3.65;2.55;;;;;;;2.46;100.00;97101.34;6152241;28;20031;-93
2023/01/17 04:09:45;;;;;;;2.83;2.13;;;;;;;2.42;100.00;97118.72;6165371;28;20639;-89
2023/01/17 04:12:47;;;;;;;2.85;2.53;;;;;;;2.51;100.00;97114.44;6153914;28;20480;-89
2023/01/17 04:15:50;;;;;;;3.58;2.30;;;;;;;2.51;100.00;97109.34;6156337;28;20310;-89
2023/01/17 04:18:52;;;;;;;3.10;2.20;;;;;;;2.56;100.00;97123.25;6140198;28;20104;-88
2023/01/17 04:21:54;;;;;;;4.93;2.35;;;;;;;2.74;100.00;97124.91;6172247;28;20097;-89
2023/01/17 04:25:02;;;;;;;2.60;2.08;;;;;;;2.83;100.00;97133.38;6143692;28;20038;-89
2023/01/17 04:28:05;;;;;;;2.55;1.98;;;;;;;2.83;100.00;97133.38;6157543;28;20059;-89
2023/01/17 04:31:12;;;;;;;3.85;2.03;;;;;;;2.87;100.00;97115.03;6157475;28;20051;-89
2023/01/17 04:34:16;;;;;;;1.67;1.33;;;;;;;2.88;100.00;97131.13;6153236;28;20042;-89
2023/01/17 04:37:18;;;;;;;2.08;1.23;;;;;;;2.95;100.00;97132.91;6161512;28;20090;-89
2023/01/17 04:40:20;;;;;;;1.83;1.55;;;;;;;2.93;100.00;97145.06;6158903;28;20043;-89
2023/01/17 04:43:22;;;;;;;2.22;1.50;;;;;;;2.87;100.00;97147.44;6160346;28;20050;-89
2023/01/17 04:46:24;;;;;;;2.75;1.88;;;;;;;2.92;100.00;97160.53;6143703;28;20382;-89
2023/01/17 04:49:27;;;;;;;1.23;1.13;;;;;;;2.90;100.00;97162.44;6158080;28;20043;-89
2023/01/17 04:52:29;;;;;;;1.65;1.33;;;;;;;2.89;100.00;97173.63;6149808;28;20047;-89
2023/01/17 04:55:31;;;;;;;1.67;1.10;;;;;;;2.82;100.00;97177.75;6143961;28;20503;-89
2023/01/17 04:58:33;;;;;;;1.40;1.17;;;;;;;2.84;100.00;97166.44;6164633;28;20060;-89
2023/01/17 05:01:35;;;;;;;0.77;0.70;;;;;;;2.72;100.00;97183.78;6161141;28;20069;-90
2023/01/17 05:04:37;;;;;;;1.08;0.98;;;;;;;2.78;100.00;97182.34;6150486;28;20047;-89
2023/01/17 05:07:39;;;;;;;0.70;0.70;;;;;;;2.74;100.00;97207.41;6161758;28;20101;-90
2023/01/17 05:10:41;;;;;;;1.25;1.15;;;;;;;2.76;100.00;97202.16;6160375;28;20066;-89
2023/01/17 05:13:42;;;;;;;0.90;0.80;;;;;;;2.72;100.00;97227.19;6165025;28;20045;-88
2023/01/17 05:16:44;;;;;;;0.50;0.50;;;;;;;2.64;100.00;97234.03;6160111;28;20050;-88
2023/01/17 05:19:46;;;;;;;0.40;0.40;;;;;;;2.52;100.00;97259.00;6162761;28;20560;-87
2023/01/17 05:22:55;;;;;;;1.75;0.47;;;;;;;2.40;100.00;97267.88;6156774;28;20047;-88
2023/01/17 05:25:57;;;;;;;0.30;0.30;;;;;;;2.20;100.00;97283.38;6164498;28;20559;-86
2023/01/17 05:28:59;;;;;;;0.20;0.20;;;;;;;2.09;100.00;97294.63;6159960;28;20050;-85
2023/01/17 05:32:01;;;;;;;0.40;0.30;;;;;;;2.07;100.00;97293.97;6161104;28;20051;-86
2023/01/17 05:35:03;;;;;;;0.70;0.40;;;;;;;2.06;100.00;97301.75;6167287;28;20050;-85
2023/01/17 05:38:04;;;;;;;0.40;0.38;;;;;;;2.04;100.00;97312.13;6165766;28;20465;-84
2023/01/17 05:41:06;;;;;;;0.77;0.55;;;;;;;1.93;100.00;97335.28;6163587;28;20039;-83
2023/01/17 05:44:08;;;;;;;0.30;0.30;;;;;;;1.62;100.00;97339.94;6160455;28;20138;-82
2023/01/17 05:47:09;;;;;;;0.43;0.40;;;;;;;1.43;100.00;97328.88;6163610;28;20394;-83
2023/01/17 05:50:14;;;;;;;0.55;0.50;;;;;;;1.43;100.00;97346.72;6154171;28;20051;-84
2023/01/17 05:53:16;;;;;;;0.68;0.50;;;;;;;1.49;100.00;97368.28;6140429;28;20078;-84
2023/01/17 05:56:17;;;;;;;0.50;0.50;;;;;;;1.53;100.00;97354.31;6161705;28;20107;-84
2023/01/17 05:59:20;;;;;;;0.50;0.40;;;;;;;1.56;100.00;97374.41;6165279;28;20408;-84
2023/01/17 06:02:37;;;;;;;1.25;0.50;;;;;;;1.63;100.00;97385.66;6147332;28;20075;-83
2023/01/17 06:05:39;;;;;;;0.40;0.40;;;;;;;1.61;100.00;97396.94;6165314;28;20038;-84
2023/01/17 06:08:41;;;;;;;0.28;0.28;;;;;;;1.65;100.00;97388.88;6157941;28;20528;-84
2023/01/17 06:11:42;;;;;;;0.30;0.30;;;;;;;1.59;100.00;97406.47;6155754;28;20043;-84
2023/01/17 06:14:44;;;;;;;0.30;0.30;;;;;;;1.57;100.00;97421.13;6165754;28;20516;-84
2023/01/17 06:17:46;;;;;;;0.55;0.40;;;;;;;1.57;100.00;97414.28;6164150;28;20070;-84
2023/01/17 06:20:53;;;;;;;1.13;0.47;;;;;;;1.55;100.00;97418.72;6164523;28;20508;-85
2023/01/17 06:23:54;;;;;;;1.55;0.47;;;;;;;1.56;100.00;97433.03;6159393;28;20544;-85
2023/01/17 06:26:56;;;;;;;0.47;0.40;;;;;;;1.64;100.00;97440.81;6165561;28;20173;-85
2023/01/17 06:29:58;;;;;;;3.70;0.52;;;;;;;1.56;100.00;97443.25;6165792;28;20447;-86
2023/01/17 06:33:00;;;;;;;1.90;0.50;;;;;;;1.55;100.00;97443.41;6153327;28;20516;-86
2023/01/17 06:36:02;;;;;;;0.45;0.45;;;;;;;1.51;100.00;97453.84;6163358;28;20069;-88
2023/01/17 06:39:04;;;;;;;4.95;0.60;;;;;;;1.48;100.00;97448.25;6160613;28;20541;-87
2023/01/17 06:42:06;;;;;;;0.80;0.40;;;;;;;1.40;100.00;97454.03;6165925;28;20481;-87
2023/01/17 06:45:08;;;;;;;0.80;0.60;;;;;;;1.41;100.00;97455.63;6164005;28;20126;-87
2023/01/17 06:48:10;;;;;;;2.50;0.50;;;;;;;1.35;100.00;97457.97;6162265;28;20133;-87
2023/01/17 06:51:12;;;;;;;1.75;0.40;;;;;;;1.41;100.00;97470.13;6152137;28;20097;-85
2023/01/17 06:54:13;;;;;;;0.38;0.38;;;;;;;1.41;100.00;97475.22;6160876;28;20047;-86
2023/01/17 06:57:15;;;;;;;0.40;0.40;;;;;;;1.41;100.00;97483.66;6156657;28;20115;-86
2023/01/17 07:00:17;;;;;;;0.77;0.32;;;;;;;1.41;100.00;97477.78;6149891;28;20047;-86
2023/01/17 07:03:22;;;;;;;0.43;0.30;;;;;;;1.41;100.00;97498.97;6154193;28;20043;-87
2023/01/17 07:06:27;;;;;;;0.70;0.40;;;;;;;1.38;100.00;97496.69;6157578;28;21103;-86
2023/01/17 07:09:29;;;;;;;0.28;0.28;;;;;;;1.36;100.00;97500.31;6162847;28;20101;-87
2023/01/17 07:12:31;;;;;;;0.57;0.35;;;;;;;1.33;100.00;97498.06;6158304;28;20304;-87
2023/01/17 07:15:33;;;;;;;2.25;0.60;;;;;;;1.29;100.00;97511.06;6163033;28;20038;-87
2023/01/17 07:18:35;;;;;;;0.40;0.40;;;;;;;1.28;100.00;97508.66;6159806;28;20043;-87
2023/01/17 07:21:39;;;;;;;1.42;0.50;;;;;;;1.31;100.00;97510.91;6152086;28;20043;-87
2023/01/17 07:24:41;;;;;;;1.67;0.70;;;;;;;1.34;100.00;97520.03;6143438;28;20092;-87
2023/01/17 07:27:43;;;;;;;1.40;0.65;;;;;;;1.34;100.00;97523.38;6154866;28;20042;-88
2023/01/17 07:30:44;;;;;;;1.25;0.80;;;;;;;1.32;100.00;97521.91;6155291;28;20390;-88
2023/01/17 07:33:46;;;;;;;1.77;0.70;;;;;;;1.33;100.00;97536.28;6144828;28;20058;-87
2023/01/17 07:36:48;;;;;;;2.20;0.70;;;;;;;1.36;100.00;97526.59;6153937;28;20043;-88
2023/01/17 07:39:50;;;;;;;2.17;0.82;;;;;;;1.33;100.00;97539.63;6152363;28;20046;-87
2023/01/17 07:42:52;;;;;;;2.28;0.98;;;;;;;1.27;100.00;97540.97;6152213;28;20058;-88
2023/01/17 07:45:54;;;;;;;3.47;0.85;;;;;;;1.31;100.00;97550.88;6174073;28;20049;-88
2023/01/17 07:48:56;;;;;;;1.17;1.00;;;;;;;1.35;100.00;97547.13;6161400;28;20547;-87
2023/01/17 07:51:58;;;;;;;1.35;0.95;;;;;;;1.35;100.00;97549.69;6159855;28;20039;-88
2023/01/17 07:54:59;;;;;;;2.22;1.30;;;;;;;1.43;100.00;97554.91;6146996;28;20130;-87
2023/01/17 07:58:01;;;;;;;1.95;1.02;;;;;;;1.50;100.00;97546.56;6163301;28;20385;-87
2023/01/17 08:01:06;;;;;;;4.90;1.10;;;;;;;1.53;100.00;97554.88;6151626;28;20051;-88
2023/01/17 08:04:10;;;;;;;5.32;1.63;;;;;;;1.62;100.00;97548.97;6144995;28;20039;-88
2023/01/17 08:07:12;;;;;;;3.13;1.15;;;;;;;1.72;100.00;97552.28;6155849;28;20058;-88
2023/01/17 08:10:20;;;;;;;4.88;1.40;;;;;;;1.73;100.00;97561.53;6152084;28;20561;-88
2023/01/17 08:13:22;;;;;;;2.30;1.00;;;;;;;1.69;100.00;97552.53;6156282;28;20417;-89
2023/01/17 08:16:25;;;;;;;5.22;1.30;;;;;;;1.73;100.00;97571.72;6160375;28;20500;-89
2023/01/17 08:19:27;;;;;;;3.05;1.00;;;;;;;1.74;100.00;97555.50;6160030;28;20039;-89
2023/01/17 08:22:29;;;;;;;3.40;1.10;;;;;;;1.87;100.00;97547.53;6139943;28;20042;-89
2023/01/17 08:25:33;;;;;;;3.85;1.10;;;;;;;1.91;100.00;97559.88;6163010;28;20046;-89
2023/01/17 08:28:36;;;;;;;4.47;1.40;;;;;;;1.93;100.00;97573.28;6146057;28;20412;-89
2023/01/17 08:31:38;;;;;;;6.03;2.42;;;;;;;1.97;100.00;97561.06;6161718;28;20050;-89
2023/01/17 08:34:39;;;;;;;2.55;1.20;;;;;;;1.95;100.00;97562.94;6156208;28;20043;-89
2023/01/17 08:37:41;;;;;;;2.53;1.30;;;;;;;1.84;100.00;97581.78;6160089;28;20053;-89
2023/01/17 08:40:43;;;;;;;2.00;1.30;;;;;;;1.72;100.00;97593.09;6154935;28;20508;-89
2023/01/17 08:43:47;;;;;;;2.47;1.15;;;;;;;1.64;100.00;97592.94;6153546;28;20151;-89
2023/01/17 08:46:49;;;;;;;2.42;1.20;;;;;;;1.59;100.00;97602.75;6146795;28;20039;-89
2023/01/17 08:49:51;;;;;;;1.60;1.20;;;;;;;1.47;100.00;97600.38;6159168;28;20054;-89
2023/01/17 08:52:58;;;;;;;5.65;1.90;;;;;;;1.42;100.00;97615.25;6151914;28;20038;-89
2023/01/17 08:56:03;;;;;;;3.53;1.40;;;;;;;1.42;100.00;97617.00;6145508;28;20062;-89
2023/01/17 08:59:06;;;;;;;2.70;1.50;;;;;;;1.37;100.00;97630.16;6152813;28;20565;-89
2023/01/17 09:02:14;;;;;;;4.30;1.50;;;;;;;1.41;100.00;97635.78;6147374;28;20046;-89
2023/01/17 09:05:16;;;;;;;3.42;1.33;;;;;;;1.42;100.00;97633.09;6154313;28;20043;-89
2023/01/17 09:08:18;;;;;;;4.35;1.30;;;;;;;1.37;100.00;97629.34;6152657;28;20527;-89
2023/01/17 09:11:20;;;;;;;5.32;1.40;;;;;;;1.48;100.00;97647.84;6159779;28;20066;-89
2023/01/17 09:14:22;;;;;;;1.80;1.27;;;;;;;1.54;100.00;97650.78;6148984;28;20032;-89
2023/01/17 09:17:24;;;;;;;3.78;1.85;;;;;;;1.49;100.00;97643.53;6149193;28;20045;-90
2023/01/17 09:20:28;;;;;;;3.67;1.10;;;;;;;1.42;100.00;97645.84;6151838;28;20047;-90
2023/01/17 09:23:30;;;;;;;2.97;1.23;;;;;;;1.37;100.00;97650.53;6155004;28;20696;-89
2023/01/17 09:26:32;;;;;;;5.15;1.45;;;;;;;1.55;100.00;97647.31;6155802;28;20046;-89
2023/01/17 09:29:34;;;;;;;2.97;1.15;;;;;;;1.63;100.00;97643.13;6161549;28;20054;-89
2023/01/17 09:32:36;;;;;;;5.65;1.30;;;;;;;1.59;100.00;97646.09;6142684;28;20054;-89
2023/01/17 09:35:38;;;;;;;2.17;0.98;;;;;;;1.64;100.00;97649.84;6147347;28;20058;-89
2023/01/17 09:38:40;;;;;;;4.90;1.25;;;;;;;1.59;100.00;97644.38;6156110;28;20124;-89
2023/01/17 09:42:07;;;;;;;3.95;1.50;;;;;;;1.67;100.00;97653.88;6160612;28;20521;-89
2023/01/17 09:45:17;;;;;;;3.97;1.30;;;;;;;1.70;100.00;97636.56;6151195;28;20706;-89
2023/01/17 09:48:38;;;;;;;2.95;1.00;;;;;;;1.76;100.00;97655.59;6157530;28;20122;-89
2023/01/17 09:51:42;;;;;;;6.38;1.40;;;;;;;1.79;100.00;97655.34;6158471;28;20043;-89
2023/01/17 09:54:46;;;;;;;3.35;1.13;;;;;;;1.77;100.00;97659.78;6158259;28;20077;-89
2023/01/17 09:58:10;;;;;;;1.80;1.00;;;;;;;1.85;100.00;97659.09;6156299;28;20537;-89
2023/01/17 10:01:51;;;;;;;2.40;1.05;;;;;;;1.76;100.00;97670.09;6162230;28;20131;-90
2023/01/17 10:05:06;;;;;;;3.53;1.17;;;;;;;1.79;100.00;97680.84;6109893;29;20339;-89
2023/01/17 10:08:39;;;;;;;4.22;1.40;;;;;;;1.82;100.00;97664.47;6112368;29;20473;-89
2023/01/17 10:11:53;;;;;;;2.22;1.30;;;;;;;1.83;100.00;97689.81;6107542;29;20059;-90
2023/01/17 10:15:15;;;;;;;5.35;1.50;;;;;;;1.85;100.00;97672.63;6111057;29;20117;-90
2023/01/17 10:18:41;;;;;;;4.90;1.50;;;;;;;1.88;100.00;97680.00;6111862;29;20422;-90
2023/01/17 10:22:11;;;;;;;3.42;1.40;;;;;;;1.88;100.00;97682.56;6110470;29;20550;-89
2023/01/17 10:25:32;;;;;;;3.33;1.30;;;;;;;1.82;100.00;97677.22;6106722;29;20172;-89
2023/01/17 10:28:51;;;;;;;1.05;0.88;;;;;;;1.89;100.00;97684.19;6097445;29;20247;-89
2023/01/17 10:32:00;;;;;;;4.90;1.42;;;;;;;1.84;100.00;97695.72;6075267;29;20048;-90
2023/01/17 10:35:16;;;;;;;4.13;1.17;;;;;;;1.90;100.00;97690.88;6112654;29;20134;-90
2023/01/17 10:38:24;;;;;;;1.52;1.27;;;;;;;1.92;100.00;97696.66;6112551;28;21146;-90
2023/01/17 10:41:34;;;;;;;6.43;1.80;;;;;;;1.85;100.00;97693.03;6155159;28;20100;-90
2023/01/17 10:44:49;;;;;;;2.45;1.20;;;;;;;1.89;100.00;97698.69;6155159;28;20422;-91
2023/01/17 10:48:01;;;;;;;3.78;1.60;;;;;;;1.91;100.00;97692.50;6146907;28;20039;-92
2023/01/17 10:51:24;;;;;;;4.00;1.48;;;;;;;1.91;100.00;97695.06;6139337;28;20441;-92
2023/01/17 10:54:38;;;;;;;2.83;1.30;;;;;;;1.89;100.00;97707.13;6147352;28;20050;-91
2023/01/17 10:57:42;;;;;;;1.40;1.13;;;;;;;1.93;100.00;97700.81;6159343;28;20043;-92
2023/01/17 11:01:04;;;;;;;4.32;2.08;;;;;;;1.89;100.00;97707.13;6151195;28;20047;-92
2023/01/17 11:04:20;;;;;;;2.80;1.40;;;;;;;2.00;100.00;97700.28;6156182;28;20497;-92
2023/01/17 11:07:23;;;;;;;1.63;1.50;;;;;;;2.00;100.00;97708.72;6157316;28;20034;-92
2023/01/17 11:10:56;;;;;;;4.20;1.30;;;;;;;2.04;100.00;97709.28;6146144;28;20062;-92
2023/01/17 11:14:05;;;;;;;2.08;1.50;;;;;;;2.09;100.00;97705.38;6146978;28;20070;-92
2023/01/17 11:17:08;;;;;;;7.32;1.80;;;;;;;2.05;100.00;97700.66;6142345;28;20043;-92
2023/01/17 11:20:33;;;;;;;6.07;1.80;;;;;;;2.11;100.00;97710.31;6160423;28;20043;-91
2023/01/17 11:23:35;;;;;;;2.40;1.25;;;;;;;2.11;100.00;97716.25;6158962;28;20051;-92
2023/01/17 11:26:46;;;;;;;5.35;1.38;;;;;;;2.13;100.00;97719.44;6154599;28;20039;-92
2023/01/17 11:30:05;;;;;;;1.58;1.20;;;;;;;2.15;100.00;97717.56;6156112;28;20046;-92
2023/01/17 11:33:31;;;;;;;4.40;1.35;;;;;;;2.16;100.00;97720.91;6160643;28;20073;-92
2023/01/17 11:36:33;;;;;;;2.00;1.02;;;;;;;2.14;100.00;97718.50;6145945;28;20035;-92
2023/01/17 11:39:35;;;;;;;7.07;1.20;;;;;;;2.26;100.00;97729.38;6159888;28;20061;-92
2023/01/17 11:42:40;;;;;;;7.10;2.28;;;;;;;2.34;100.00;97728.69;6154916;28;20049;-92
2023/01/17 11:45:42;;;;;;;5.75;1.15;;;;;;;2.44;100.00;97732.00;6159190;28;20035;-85
2023/01/17 11:48:51;;;;;;;2.53;1.13;;;;;;;2.46;100.00;97730.13;6156853;28;20174;-92
2023/01/17 11:51:56;;;;;;;2.95;1.33;;;;;;;2.49;100.00;97737.50;6159544;28;20125;-93
2023/01/17 11:54:58;;;;;;;7.40;1.48;;;;;;;2.61;100.00;97738.16;6150581;28;20182;-92
2023/01/17 11:58:01;;;;;;;2.78;1.10;;;;;;;2.67;100.00;97744.44;6156750;28;20043;-92
2023/01/17 12:01:34;;;;;;;2.65;1.15;;;;;;;2.75;100.00;97736.88;6158562;28;20078;-92
2023/01/17 12:04:54;;;;;;;4.03;1.23;;;;;;;2.79;100.00;97733.91;6141305;28;20047;-92
2023/01/17 12:07:55;;;;;;;4.38;1.45;;;;;;;2.66;100.00;97730.88;6142150;28;20061;-92
2023/01/17 12:11:20;;;;;;;2.65;1.27;;;;;;;2.75;100.00;97724.91;6152239;28;20039;-92
2023/01/17 12:15:02;;;;;;;3.70;1.50;;;;;;;2.71;100.00;97731.25;6150992;28;20062;-92
2023/01/17 12:18:37;;;;;;;3.45;1.67;;;;;;;2.60;100.00;97733.97;6151056;28;20049;-92
2023/01/17 12:22:28;;;;;;;2.95;1.33;;;;;;;2.65;100.00;97719.03;6152047;28;20061;-92
2023/01/17 12:25:53;;;;;;;4.07;1.10;;;;;;;2.59;100.00;97722.16;6093037;29;20078;-92
2023/01/17 12:29:26;;;;;;;3.28;1.00;;;;;;;2.66;100.00;97720.66;6101916;29;20040;-91
2023/01/17 12:32:46;;;;;;;1.70;1.20;;;;;;;2.91;100.00;97733.72;6093638;29;20552;-92
2023/01/17 12:36:02;;;;;;;10.18;1.92;;;;;;;3.14;100.00;97740.03;6107112;29;20564;-91
2023/01/17 12:39:08;;;;;;;6.82;2.28;;;;;;;3.16;100.00;97734.81;6096225;29;20117;-90
2023/01/17 12:42:17;;;;;;;4.60;1.80;;;;;;;3.17;100.00;97737.19;6100868;29;20051;-90
2023/01/17 12:45:30;;;;;;;5.32;1.58;;;;;;;3.16;100.00;97738.16;6103826;29;20099;-89
2023/01/17 12:48:38;;;;;;;4.00;1.40;;;;;;;3.20;100.00;97744.56;6103301;29;20077;-90
2023/01/17 12:51:43;;;;;;;2.20;1.27;;;;;;;3.42;100.00;97747.69;6110316;29;20054;-90
2023/01/17 12:54:54;;;;;;;4.47;1.40;;;;;;;3.64;100.00;97739.59;6100084;29;20531;-89
2023/01/17 12:57:59;;;;;;;3.17;1.40;;;;;;;3.87;100.00;97736.56;6095153;29;20055;-90
2023/01/17 13:01:11;;;;;;;2.97;1.45;;;;;;;3.93;100.00;97753.91;6119263;28;20047;-90
2023/01/17 13:04:28;;;;;;;3.05;1.40;;;;;;;3.36;100.00;97733.72;6147873;28;20529;-89
2023/01/17 13:07:56;;;;;;;5.03;1.48;;;;;;;3.15;100.00;97744.19;6144386;28;20064;-89
2023/01/17 13:11:14;;;;;;;6.00;2.42;;;;;;;3.22;100.00;97742.69;6153792;28;20118;-89
2023/01/17 13:14:18;;;;;;;3.47;1.30;;;;;;;3.29;100.00;97747.22;6150014;28;20046;-89
2023/01/17 13:17:53;;;;;;;3.28;1.60;;;;;;;3.35;100.00;97752.56;6145791;28;20154;-89
2023/01/17 13:21:28;;;;;;;7.07;2.20;;;;;;;3.43;100.00;97765.44;6090554;29;20207;-89
2023/01/17 13:24:54;;;;;;;4.75;2.20;;;;;;;3.45;100.00;97752.50;6003611;29;20056;-89
2023/01/17 13:28:21;;;;;;;8.32;2.03;;;;;;;3.35;100.00;97756.88;5992608;29;20595;-89
2023/01/17 13:32:02;;;;;;;2.65;1.60;;;;;;;3.23;100.00;97759.66;5995515;29;20072;-89
2023/01/17 13:35:10;;;;;;;5.15;1.77;;;;;;;3.02;100.00;97756.50;5997173;29;20462;-89
2023/01/17 13:38:37;;;;;;;3.20;1.70;;;;;;;2.91;100.00;97764.38;5993125;29;20137;-88
2023/01/17 13:42:37;;;;;;;3.00;2.22;;;;;;;2.72;100.00;97770.34;5990102;29;20055;-89
2023/01/17 13:45:41;;;;;;;2.50;2.20;;;;;;;2.61;100.00;97768.78;5927620;29;20070;-89
2023/01/17 13:49:41;;;;;;;4.93;2.78;;;;;;;2.54;100.00;97777.94;5962942;29;20434;-89
2023/01/17 13:52:45;;;;;;;6.07;2.67;;;;;;;2.52;100.00;97779.81;5947247;29;20062;-89
2023/01/17 13:56:18;;;;;;;6.65;3.63;;;;;;;2.45;100.00;97789.78;5955018;29;20093;-88
2023/01/17 13:59:28;;;;;;;4.50;2.22;;;;;;;2.45;100.00;97794.88;5979384;29;20059;-89
2023/01/17 14:02:35;;;;;;;4.53;2.50;;;;;;;2.48;100.00;97797.16;6056178;29;20358;-89
2023/01/17 14:05:37;;;;;;;6.40;2.92;;;;;;;2.42;100.00;97794.34;6067297;29;20065;-88
2023/01/17 14:08:43;;;;;;;4.85;3.28;;;;;;;2.41;100.00;97805.50;6067849;29;20101;-88
2023/01/17 14:12:10;;;;;;;8.70;2.75;;;;;;;2.42;100.00;97802.00;6068401;29;20538;-88
2023/01/17 14:15:25;;;;;;;5.78;2.88;;;;;;;2.41;100.00;97805.50;6092001;28;20071;-88
2023/01/17 14:18:42;;;;;;;4.53;3.00;;;;;;;2.40;100.00;97811.56;6157709;28;20409;-88
2023/01/17 14:21:44;;;;;;;8.60;3.55;;;;;;;2.41;100.00;97803.78;6148270;28;20066;-88
2023/01/17 14:25:10;;;;;;;5.43;3.20;;;;;;;2.42;100.00;97809.69;6150765;28;20043;-88
2023/01/17 14:28:39;;;;;;;4.53;3.10;;;;;;;2.39;100.00;97809.94;6143380;28;20148;-88
2023/01/17 14:31:41;;;;;;;12.40;3.72;;;;;;;2.28;100.00;97809.13;6158468;28;20062;-88
2023/01/17 14:34:45;;;;;;;7.10;3.30;;;;;;;2.18;100.00;97813.44;6161058;28;20799;-88
2023/01/17 14:37:51;;;;;;;6.90;3.53;;;;;;;2.11;100.00;97807.25;6162243;28;20075;-88
2023/01/17 14:40:56;;;;;;;11.38;4.25;;;;;;;2.01;100.00;97806.47;6149805;28;20082;-88
2023/01/17 14:43:59;;;;;;;7.07;4.47;;;;;;;1.93;100.00;97804.59;6148273;28;20525;-87
2023/01/17 14:47:01;;;;;;;6.93;4.05;;;;;;;1.85;100.00;97814.66;6153767;28;20051;-87
2023/01/17 14:50:10;;;;;;;7.15;4.00;;;;;;;1.80;100.00;97819.34;6164908;28;20047;-88
2023/01/17 14:53:12;;;;;;;10.18;3.97;;;;;;;1.76;100.00;97818.78;6151436;28;20047;-88
2023/01/17 14:56:21;;;;;;;7.00;3.45;;;;;;;1.70;100.00;97825.22;6149707;28;20047;-87
2023/01/17 14:59:23;;;;;;;13.15;5.90;;;;;;;1.66;100.00;97825.63;6151131;28;20442;-88
2023/01/17 15:02:25;;;;;;;9.23;4.32;;;;;;;1.57;100.00;97819.59;6156097;28;20042;-87
2023/01/17 15:05:29;;;;;;;8.63;4.15;;;;;;;1.46;100.00;97819.69;6153038;28;20358;-87
2023/01/17 15:08:34;;;;;;;8.77;4.43;;;;;;;1.39;100.00;97816.88;6152492;28;20039;-88
2023/01/17 15:11:38;;;;;;;6.40;4.20;;;;;;;1.25;100.00;97818.03;6154961;28;20051;-87
2023/01/17 15:14:44;;;;;;;8.15;4.20;;;;;;;1.15;100.00;97809.53;6149239;28;20039;-87
2023/01/17 15:17:46;;;;;;;10.45;4.18;;;;;;;1.15;100.00;97811.28;6149806;28;20046;-87
2023/01/17 15:21:00;;;;;;;8.80;4.68;;;;;;;1.07;100.00;97807.66;6156008;28;20046;-87
2023/01/17 15:24:06;;;;;;;10.27;4.50;;;;;;;0.99;100.00;97809.19;6165269;28;20093;-87
2023/01/17 15:27:15;;;;;;;9.20;4.70;;;;;;;0.88;100.00;97807.56;6177941;28;20047;-87
2023/01/17 15:30:17;;;;;;;8.05;5.32;;;;;;;0.92;100.00;97811.47;6153958;28;20548;-87
2023/01/17 15:33:19;;;;;;;10.98;4.93;;;;;;;0.86;100.00;97819.59;6147951;28;20744;-87
2023/01/17 15:36:33;;;;;;;11.27;4.95;;;;;;;0.76;100.00;97814.47;6144612;28;20495;-86
2023/01/17 15:39:37;;;;;;;11.02;5.30;;;;;;;0.61;100.00;97816.53;6152347;28;20077;-87
2023/01/17 15:42:43;;;;;;;7.93;4.53;;;;;;;0.48;100.00;97826.09;6157200;28;20091;-87
2023/01/17 15:45:56;;;;;;;9.25;5.43;;;;;;;0.38;100.00;97830.31;6158283;28;20043;-87
2023/01/17 15:49:27;;;;;;;10.85;5.47;;;;;;;0.22;100.00;97840.91;6161928;28;20065;-87
2023/01/17 15:52:29;;;;;;;10.45;5.60;;;;;;;0.08;100.00;97852.19;6158220;28;20058;-86
2023/01/17 15:55:46;;;;;;;9.25;5.50;;;;;;;0.05;100.00;97857.53;6149697;28;20370;-86
2023/01/17 15:58:49;;;;;;;9.73;5.53;;;;;;;0.02;100.00;97859.50;6148700;28;20512;-86
2023/01/17 16:01:57;;;;;;;10.32;5.78;;;;;;;-0.04;100.00;97866.66;6147757;28;20039;-86
2023/01/17 16:05:01;;;;;;;12.95;6.82;;;;;;;-0.07;100.00;97877.09;6149691;28;20173;-86
2023/01/17 16:08:03;;;;;;;12.88;6.35;;;;;;;-0.14;100.00;97881.03;6155759;28;20275;-86